Time;durP1;ratioP1;P1;durP2;ratioP2;P2;SDS_P1;SDS_P2;PMS_P1;PMS_P2;Temp;Humidity;BMP_temperature;BMP_pressure;BME280_temperature;BME280_humidity;BME280_pressure;Samples;Min_cycle;Max_cycle;Signal;HPM_P1;HPM_P2
2022/09/29 00:01:07;;;;;;;0.30;0.20;;;20.40;63.20;;;;;;5064103;28;20056;-25
2022/09/29 00:03:33;;;;;;;0.40;0.10;;;20.40;62.30;;;;;;5057706;28;20047;-20
2022/09/29 00:05:58;;;;;;;0.20;0.20;;;20.40;62.50;;;;;;5060366;28;20048;-19
2022/09/29 00:08:25;;;;;;;0.13;0.13;;;20.40;62.40;;;;;;5059199;28;20052;-19
2022/09/29 00:10:51;;;;;;;0.30;0.30;;;20.40;62.40;;;;;;5062197;28;20418;-19
2022/09/29 00:13:17;;;;;;;0.20;0.10;;;20.30;62.40;;;;;;5056931;28;20060;-24
2022/09/29 00:15:42;;;;;;;0.22;0.22;;;20.40;62.50;;;;;;5063246;28;20033;-19
2022/09/29 00:18:09;;;;;;;0.30;0.30;;;20.30;62.50;;;;;;5058165;28;20140;-19
2022/09/29 00:20:35;;;;;;;0.45;0.20;;;20.30;62.40;;;;;;5045414;28;20453;-19
2022/09/29 00:23:01;;;;;;;0.40;0.30;;;20.30;62.40;;;;;;5058538;28;20094;-23
2022/09/29 00:25:27;;;;;;;0.20;0.10;;;20.40;62.50;;;;;;5062675;28;20044;-19
2022/09/29 00:27:53;;;;;;;0.20;0.13;;;20.40;62.40;;;;;;5057993;28;20044;-20
2022/09/29 00:30:19;;;;;;;0.47;0.20;;;20.40;62.30;;;;;;5060261;28;20052;-19
2022/09/29 00:32:44;;;;;;;0.20;0.20;;;20.40;62.30;;;;;;5057690;28;20059;-19
2022/09/29 00:35:10;;;;;;;0.55;0.35;;;20.40;62.30;;;;;;5060734;28;20068;-19
2022/09/29 00:37:35;;;;;;;0.20;0.20;;;20.30;62.20;;;;;;5058672;28;20147;-20
2022/09/29 00:40:03;;;;;;;0.10;0.10;;;20.40;62.30;;;;;;5059663;28;20453;-20
2022/09/29 00:42:31;;;;;;;0.52;0.40;;;20.30;62.10;;;;;;5059832;28;20064;-19
2022/09/29 00:45:03;;;;;;;0.80;0.38;;;20.30;62.50;;;;;;5059611;28;20577;-19
2022/09/29 00:47:29;;;;;;;0.38;0.13;;;20.30;62.40;;;;;;5059582;28;20056;-21
2022/09/29 00:50:00;;;;;;;0.20;0.15;;;20.20;62.40;;;;;;5064361;28;20047;-22
2022/09/29 00:52:27;;;;;;;0.40;0.20;;;20.30;62.80;;;;;;5060193;28;20057;-19
2022/09/29 00:54:56;;;;;;;0.20;0.20;;;20.20;62.50;;;;;;5062505;28;20128;-20
2022/09/29 00:57:31;;;;;;;0.20;0.20;;;20.20;62.70;;;;;;5060279;28;20391;-19
2022/09/29 01:00:03;;;;;;;0.22;0.13;;;20.20;62.70;;;;;;5059978;28;20045;-26
2022/09/29 01:02:28;;;;;;;0.25;0.20;;;20.20;62.70;;;;;;5058910;28;20439;-19
2022/09/29 01:04:54;;;;;;;0.20;0.20;;;20.20;63.00;;;;;;5062481;28;20039;-19
2022/09/29 01:07:23;;;;;;;0.20;0.20;;;20.20;62.60;;;;;;5059053;28;20418;-19
2022/09/29 01:09:49;;;;;;;0.10;0.10;;;20.20;62.80;;;;;;5059248;28;20147;-19
2022/09/29 01:12:15;;;;;;;0.55;0.35;;;20.10;63.10;;;;;;5057214;28;20513;-19
2022/09/29 01:14:41;;;;;;;0.38;0.20;;;20.20;62.80;;;;;;5063297;28;20518;-19
2022/09/29 01:17:06;;;;;;;0.15;0.10;;;20.20;62.60;;;;;;5061020;28;20041;-19
2022/09/29 01:19:57;;;;;;;0.20;0.20;;;20.20;63.00;;;;;;5057537;28;20040;-19
2022/09/29 01:22:51;;;;;;;0.00;0.00;;;20.20;62.90;;;;;;5061635;28;20087;-19
2022/09/29 01:25:32;;;;;;;0.38;0.20;;;20.20;63.10;;;;;;5055669;28;20045;-20
2022/09/29 01:28:09;;;;;;;0.08;0.08;;;20.20;63.00;;;;;;5043234;28;20068;-19
2022/09/29 01:30:51;;;;;;;0.20;0.10;;;20.20;62.60;;;;;;5061093;28;20049;-19
2022/09/29 01:33:26;;;;;;;0.30;0.22;;;20.20;62.60;;;;;;5062535;28;20049;-20
2022/09/29 01:36:00;;;;;;;1.30;0.10;;;20.10;62.80;;;;;;5062423;28;20053;-19
2022/09/29 01:38:47;;;;;;;0.22;0.20;;;20.00;62.90;;;;;;5044110;28;20267;-19
2022/09/29 01:41:35;;;;;;;0.10;0.10;;;20.10;63.40;;;;;;5062062;28;20029;-19
2022/09/29 01:44:10;;;;;;;0.20;0.17;;;20.00;63.20;;;;;;5058435;28;20421;-19
2022/09/29 01:46:51;;;;;;;0.20;0.20;;;20.10;62.80;;;;;;5066306;28;20051;-19
2022/09/29 01:49:16;;;;;;;0.10;0.10;;;20.10;62.90;;;;;;5044775;28;20131;-20
2022/09/29 01:51:53;;;;;;;0.32;0.20;;;20.10;62.90;;;;;;5048755;28;20139;-19
2022/09/29 01:54:24;;;;;;;0.20;0.10;;;20.10;62.60;;;;;;5044728;28;20613;-19
2022/09/29 01:56:52;;;;;;;0.10;0.10;;;20.10;62.70;;;;;;5062685;28;20114;-19
2022/09/29 01:59:32;;;;;;;0.10;0.10;;;20.10;62.70;;;;;;5047294;28;20090;-19
2022/09/29 02:02:01;;;;;;;0.28;0.20;;;20.10;62.90;;;;;;5064643;28;20041;-19
2022/09/29 02:04:31;;;;;;;0.22;0.20;;;20.10;63.00;;;;;;5040962;28;20048;-19
2022/09/29 02:07:09;;;;;;;0.28;0.22;;;20.10;63.00;;;;;;5046674;28;20048;-20
2022/09/29 02:09:40;;;;;;;0.20;0.10;;;20.10;62.70;;;;;;5062713;28;20032;-19
2022/09/29 02:12:06;;;;;;;0.30;0.10;;;20.10;63.00;;;;;;5044221;28;20098;-19
2022/09/29 02:14:36;;;;;;;0.10;0.10;;;20.20;63.90;;;;;;5049427;28;20406;-20
2022/09/29 02:17:06;;;;;;;0.45;0.20;;;20.10;63.30;;;;;;5066867;28;20552;-20
2022/09/29 02:19:33;;;;;;;0.08;0.08;;;20.00;63.40;;;;;;5066919;28;20052;-23
2022/09/29 02:21:59;;;;;;;1.08;0.15;;;20.00;63.00;;;;;;5081775;28;20127;-19
2022/09/29 02:24:24;;;;;;;0.45;0.20;;;20.00;63.50;;;;;;5063879;28;20135;-19
2022/09/29 02:26:50;;;;;;;0.20;0.10;;;20.10;63.00;;;;;;5067004;28;20068;-19
2022/09/29 02:29:16;;;;;;;0.55;0.10;;;20.00;63.20;;;;;;5060544;28;20051;-19
2022/09/29 02:31:42;;;;;;;0.40;0.40;;;20.00;63.10;;;;;;5065096;28;20044;-19
2022/09/29 02:34:08;;;;;;;0.10;0.10;;;20.10;62.90;;;;;;5059813;28;20043;-19
2022/09/29 02:36:39;;;;;;;0.17;0.10;;;20.10;63.00;;;;;;5061638;28;20089;-24
2022/09/29 02:39:08;;;;;;;0.20;0.15;;;20.10;63.00;;;;;;5065116;28;20056;-21
2022/09/29 02:41:54;;;;;;;0.20;0.10;;;20.00;62.90;;;;;;5063887;28;20392;-19
2022/09/29 02:44:37;;;;;;;0.25;0.20;;;20.10;63.00;;;;;;5059459;28;20052;-19
2022/09/29 02:47:37;;;;;;;1.13;0.20;;;20.00;63.40;;;;;;5064374;28;20041;-19
2022/09/29 02:50:12;;;;;;;0.20;0.20;;;19.90;63.30;;;;;;5061184;28;20051;-19
2022/09/29 02:52:53;;;;;;;0.20;0.10;;;20.00;63.20;;;;;;5062738;28;20041;-26
2022/09/29 02:55:24;;;;;;;0.10;0.10;;;20.00;63.30;;;;;;5064419;28;20056;-20
2022/09/29 02:58:00;;;;;;;0.10;0.03;;;20.00;62.90;;;;;;5061671;28;20052;-20
2022/09/29 03:00:26;;;;;;;0.10;0.10;;;20.00;63.00;;;;;;5060044;28;20057;-22
2022/09/29 03:02:51;;;;;;;0.17;0.17;;;20.00;63.10;;;;;;5059981;28;20047;-19
2022/09/29 03:05:18;;;;;;;0.17;0.10;;;19.90;63.10;;;;;;5068773;28;20048;-19
2022/09/29 03:07:44;;;;;;;0.10;0.10;;;20.00;63.00;;;;;;5070964;28;20047;-29
2022/09/29 03:10:11;;;;;;;0.55;0.08;;;20.00;63.20;;;;;;5062719;28;20052;-20
2022/09/29 03:12:37;;;;;;;0.28;0.10;;;19.90;63.40;;;;;;5063228;28;20036;-24
2022/09/29 03:15:03;;;;;;;0.55;0.10;;;19.90;63.10;;;;;;5060000;28;20060;-19
2022/09/29 03:17:29;;;;;;;0.10;0.10;;;19.90;63.10;;;;;;5062004;28;20095;-19
2022/09/29 03:19:55;;;;;;;0.20;0.10;;;19.90;63.90;;;;;;5060457;28;20462;-21
2022/09/29 03:22:20;;;;;;;0.13;0.10;;;19.90;63.30;;;;;;5061301;28;20072;-19
2022/09/29 03:24:46;;;;;;;0.22;0.20;;;19.90;63.20;;;;;;5059018;28;20064;-20
2022/09/29 03:27:11;;;;;;;0.35;0.10;;;20.00;63.20;;;;;;5062319;28;20036;-19
2022/09/29 03:29:37;;;;;;;0.20;0.20;;;19.90;63.00;;;;;;5062082;28;20143;-21
2022/09/29 03:32:03;;;;;;;0.17;0.10;;;20.00;63.20;;;;;;5063309;28;20044;-19
2022/09/29 03:34:29;;;;;;;0.22;0.22;;;19.90;62.90;;;;;;5061441;28;20216;-24
2022/09/29 03:36:56;;;;;;;1.27;0.10;;;19.90;63.00;;;;;;5061912;28;20127;-20
2022/09/29 03:39:22;;;;;;;0.10;0.10;;;20.00;63.00;;;;;;5054764;28;20446;-20
2022/09/29 03:41:48;;;;;;;0.03;0.03;;;20.00;63.00;;;;;;5062488;28;20041;-19
2022/09/29 03:44:13;;;;;;;1.27;0.28;;;19.90;62.80;;;;;;5061901;28;20130;-19
2022/09/29 03:46:39;;;;;;;0.10;0.10;;;20.00;62.90;;;;;;5058681;28;20036;-20
2022/09/29 03:49:05;;;;;;;0.40;0.10;;;20.00;62.70;;;;;;5059273;28;20090;-20
2022/09/29 03:51:30;;;;;;;0.20;0.10;;;20.10;62.70;;;;;;5063715;28;20048;-22
2022/09/29 03:53:56;;;;;;;0.10;0.08;;;19.90;63.70;;;;;;5058075;28;20059;-19
2022/09/29 03:56:21;;;;;;;0.10;0.10;;;19.90;63.00;;;;;;5059848;28;20037;-23
2022/09/29 03:58:47;;;;;;;0.40;0.10;;;19.90;62.90;;;;;;5060320;28;20048;-20
2022/09/29 04:01:12;;;;;;;0.32;0.22;;;19.90;63.00;;;;;;5064790;28;20044;-22
2022/09/29 04:03:38;;;;;;;0.15;0.15;;;19.90;63.00;;;;;;5057819;28;20045;-19
2022/09/29 04:06:03;;;;;;;0.15;0.10;;;19.90;63.10;;;;;;5065054;28;20051;-25
2022/09/29 04:08:29;;;;;;;0.20;0.10;;;19.90;63.00;;;;;;5062615;28;20083;-19
2022/09/29 04:10:55;;;;;;;0.10;0.10;;;19.90;63.20;;;;;;5064726;28;20039;-20
2022/09/29 04:13:20;;;;;;;0.10;0.10;;;19.80;63.00;;;;;;5062296;28;20562;-19
2022/09/29 04:15:49;;;;;;;0.40;0.10;;;19.90;63.00;;;;;;5065754;28;20036;-20
2022/09/29 04:18:15;;;;;;;0.00;0.00;;;20.00;62.80;;;;;;5060558;28;20059;-20
2022/09/29 04:20:40;;;;;;;0.20;0.10;;;19.90;62.80;;;;;;5064577;28;20028;-25
2022/09/29 04:23:06;;;;;;;0.20;0.10;;;19.80;63.00;;;;;;5064857;28;20071;-20
2022/09/29 04:25:32;;;;;;;0.10;0.10;;;19.90;63.10;;;;;;5061384;28;20505;-19
2022/09/29 04:27:58;;;;;;;0.10;0.10;;;19.90;63.00;;;;;;5066706;28;20512;-20
2022/09/29 04:30:23;;;;;;;0.15;0.10;;;19.90;63.00;;;;;;4708657;28;10000583;-19
2022/09/29 04:32:49;;;;;;;0.00;0.00;;;19.90;62.90;;;;;;5052325;28;20052;-20
2022/09/29 04:35:15;;;;;;;0.10;0.10;;;19.90;62.70;;;;;;5050504;28;20044;-19
2022/09/29 04:37:40;;;;;;;0.10;0.10;;;19.90;63.00;;;;;;5053222;28;20040;-22
2022/09/29 04:40:06;;;;;;;0.10;0.08;;;19.90;63.20;;;;;;5055665;28;20032;-19
2022/09/29 04:42:32;;;;;;;0.00;0.00;;;19.90;63.00;;;;;;5053543;28;20231;-19
2022/09/29 04:44:57;;;;;;;0.17;0.10;;;19.80;62.80;;;;;;5051527;28;20049;-19
2022/09/29 04:47:23;;;;;;;0.10;0.10;;;19.80;63.00;;;;;;5054725;28;20044;-26
2022/09/29 04:49:48;;;;;;;0.57;0.25;;;19.80;62.90;;;;;;5057999;28;20048;-19
2022/09/29 04:52:14;;;;;;;0.03;0.03;;;19.80;62.70;;;;;;5059459;28;20036;-19
2022/09/29 04:54:40;;;;;;;0.00;0.00;;;19.90;62.70;;;;;;5059526;28;20426;-22
2022/09/29 04:57:05;;;;;;;0.20;0.20;;;19.80;62.90;;;;;;5059358;28;20036;-19
2022/09/29 04:59:31;;;;;;;0.47;0.10;;;19.90;62.80;;;;;;5052292;28;20076;-19
2022/09/29 05:01:57;;;;;;;0.13;0.10;;;19.90;62.60;;;;;;5055230;28;20860;-23
2022/09/29 05:04:22;;;;;;;0.10;0.10;;;19.90;62.60;;;;;;5055100;28;20044;-20
2022/09/29 05:06:48;;;;;;;0.13;0.13;;;19.90;62.70;;;;;;5081072;28;20091;-21
2022/09/29 05:09:13;;;;;;;0.30;0.10;;;19.90;62.60;;;;;;5058613;28;20048;-30
2022/09/29 05:11:39;;;;;;;0.20;0.10;;;19.90;62.70;;;;;;5062960;28;20589;-20
2022/09/29 05:14:05;;;;;;;0.30;0.10;;;19.90;62.70;;;;;;5061225;28;20199;-19
2022/09/29 05:16:30;;;;;;;0.10;0.10;;;19.90;62.60;;;;;;5064850;28;20144;-23
2022/09/29 05:18:56;;;;;;;0.03;0.00;;;19.90;63.60;;;;;;5058287;28;20044;-30
2022/09/29 05:21:22;;;;;;;0.00;0.00;;;19.90;62.80;;;;;;5058641;28;20076;-20
2022/09/29 05:23:47;;;;;;;1.25;0.00;;;19.90;62.80;;;;;;5061951;28;20518;-20
2022/09/29 05:26:13;;;;;;;0.00;0.00;;;19.90;62.80;;;;;;5059939;28;20040;-24
2022/09/29 05:28:42;;;;;;;1.13;0.10;;;19.90;62.80;;;;;;5055189;28;20045;-23
2022/09/29 05:31:08;;;;;;;0.15;0.15;;;19.90;62.80;;;;;;5060571;28;20264;-23
2022/09/29 05:33:34;;;;;;;0.25;0.10;;;19.90;62.70;;;;;;5057215;28;20044;-20
2022/09/29 05:36:00;;;;;;;0.10;0.10;;;19.90;62.70;;;;;;5059974;28;20522;-20
2022/09/29 05:38:25;;;;;;;0.03;0.03;;;19.90;62.80;;;;;;5059416;28;20477;-20
2022/09/29 05:40:51;;;;;;;0.10;0.10;;;19.90;62.70;;;;;;5058908;28;20052;-22
2022/09/29 05:43:18;;;;;;;0.10;0.10;;;19.90;62.70;;;;;;5052586;28;20495;-20
2022/09/29 05:45:43;;;;;;;0.10;0.10;;;19.90;62.70;;;;;;5058169;28;20033;-21
2022/09/29 05:48:09;;;;;;;0.08;0.03;;;19.90;62.60;;;;;;5057434;28;20052;-20
2022/09/29 05:50:40;;;;;;;0.10;0.03;;;19.90;62.60;;;;;;5057530;28;20041;-20
2022/09/29 05:53:07;;;;;;;1.33;0.00;;;19.90;62.60;;;;;;5056074;28;20112;-20
2022/09/29 05:55:33;;;;;;;0.30;0.10;;;19.90;62.60;;;;;;5055807;28;20045;-20
2022/09/29 05:57:58;;;;;;;0.25;0.10;;;19.90;62.60;;;;;;5061386;28;20037;-20
2022/09/29 06:00:24;;;;;;;0.22;0.10;;;20.00;62.30;;;;;;5059467;28;20400;-22
2022/09/29 06:02:49;;;;;;;0.20;0.20;;;20.10;62.10;;;;;;5052684;28;20033;-20
2022/09/29 06:05:15;;;;;;;1.27;0.10;;;20.00;62.30;;;;;;5060036;28;20513;-20
2022/09/29 06:07:41;;;;;;;0.30;0.10;;;19.90;62.30;;;;;;5054570;28;20048;-19
2022/09/29 06:10:06;;;;;;;0.22;0.10;;;19.90;63.30;;;;;;5053735;28;20047;-20
2022/09/29 06:12:35;;;;;;;0.08;0.00;;;19.90;62.40;;;;;;5050751;28;20599;-25
2022/09/29 06:15:05;;;;;;;1.40;0.00;;;19.90;62.40;;;;;;5052562;28;20068;-19
2022/09/29 06:17:31;;;;;;;0.20;0.10;;;20.00;62.50;;;;;;5050385;28;20438;-20
2022/09/29 06:19:57;;;;;;;0.32;0.10;;;19.90;62.60;;;;;;5059147;28;20063;-19
2022/09/29 06:22:22;;;;;;;0.00;0.00;;;19.90;62.60;;;;;;5054639;28;20050;-20
2022/09/29 06:24:48;;;;;;;1.33;0.17;;;19.90;62.70;;;;;;5055081;28;20407;-20
2022/09/29 06:27:14;;;;;;;0.10;0.10;;;20.00;63.20;;;;;;5055436;28;20049;-20
2022/09/29 06:29:39;;;;;;;0.13;0.05;;;20.00;62.50;;;;;;5057175;28;20616;-20
2022/09/29 06:32:05;;;;;;;2.05;0.10;;;19.90;62.60;;;;;;5050632;28;20177;-20
2022/09/29 06:34:30;;;;;;;1.42;0.17;;;19.90;62.60;;;;;;5052128;28;20576;-20
2022/09/29 06:39:40;;;;;;;0.40;0.10;;;19.90;62.70;;;;;;5054279;28;20510;-19
2022/09/29 06:42:07;;;;;;;0.10;0.10;;;19.90;62.70;;;;;;5060245;28;20040;-19
2022/09/29 06:44:32;;;;;;;0.85;0.15;;;19.90;62.80;;;;;;5061988;28;20418;-20
2022/09/29 06:46:58;;;;;;;0.13;0.10;;;19.90;62.80;;;;;;5065723;28;20514;-19
2022/09/29 06:49:24;;;;;;;2.63;0.10;;;19.90;62.80;;;;;;5060332;28;20094;-19
2022/09/29 06:51:49;;;;;;;0.10;0.10;;;19.90;62.70;;;;;;5064568;28;20107;-19
2022/09/29 06:54:17;;;;;;;1.25;0.10;;;19.90;62.70;;;;;;5059130;28;20041;-19
2022/09/29 06:56:45;;;;;;;1.55;0.20;;;19.90;62.60;;;;;;5064914;28;20041;-20
2022/09/29 06:59:10;;;;;;;1.17;0.10;;;19.90;62.60;;;;;;5059458;28;20085;-19
2022/09/29 07:01:36;;;;;;;2.75;0.17;;;19.90;62.40;;;;;;5066672;28;20052;-20
2022/09/29 07:04:01;;;;;;;0.20;0.20;;;19.90;62.50;;;;;;5064000;28;20060;-20
2022/09/29 07:06:28;;;;;;;0.20;0.10;;;19.90;62.60;;;;;;5064831;28;20503;-19
2022/09/29 07:08:54;;;;;;;1.10;0.10;;;19.90;62.50;;;;;;5063757;28;20040;-24
2022/09/29 07:11:20;;;;;;;0.20;0.10;;;19.90;62.40;;;;;;5066385;28;20052;-19
2022/09/29 07:13:45;;;;;;;0.17;0.10;;;19.80;62.50;;;;;;5064527;28;20113;-20
2022/09/29 07:16:12;;;;;;;0.38;0.10;;;19.90;62.40;;;;;;5067320;28;20044;-26
2022/09/29 07:18:39;;;;;;;0.13;0.10;;;19.90;62.40;;;;;;5064700;28;20036;-19
2022/09/29 07:21:09;;;;;;;0.88;0.10;;;19.90;62.40;;;;;;5065159;28;20178;-20
2022/09/29 07:23:35;;;;;;;0.15;0.10;;;19.80;62.40;;;;;;5060338;28;20033;-19
2022/09/29 07:26:00;;;;;;;0.40;0.20;;;19.80;62.10;;;;;;5065061;28;20044;-20
2022/09/29 07:28:26;;;;;;;0.10;0.10;;;19.90;62.20;;;;;;5062151;28;20078;-19
2022/09/29 07:30:59;;;;;;;0.40;0.10;;;19.90;62.20;;;;;;5067184;28;20573;-21
2022/09/29 07:33:24;;;;;;;0.30;0.10;;;19.80;62.10;;;;;;5063666;28;20055;-19
2022/09/29 07:35:53;;;;;;;0.20;0.10;;;19.80;62.10;;;;;;5064869;28;20048;-19
2022/09/29 07:38:19;;;;;;;0.10;0.10;;;19.80;62.10;;;;;;5062512;28;20044;-20
2022/09/29 07:40:44;;;;;;;0.15;0.10;;;19.80;62.10;;;;;;5063639;28;20028;-19
2022/09/29 07:43:10;;;;;;;0.47;0.10;;;19.80;62.90;;;;;;5065866;28;20052;-22
2022/09/29 07:45:36;;;;;;;0.20;0.13;;;19.80;62.10;;;;;;5064673;28;20055;-19
2022/09/29 07:48:01;;;;;;;0.13;0.05;;;19.80;62.20;;;;;;5063594;28;20055;-21
2022/09/29 07:50:27;;;;;;;0.10;0.10;;;19.90;61.90;;;;;;5065624;28;20084;-19
2022/09/29 07:52:52;;;;;;;0.20;0.20;;;19.90;62.00;;;;;;5063467;28;20541;-19
2022/09/29 07:55:20;;;;;;;0.73;0.40;;;19.80;62.10;;;;;;5063216;28;20036;-19
2022/09/29 07:57:48;;;;;;;0.20;0.20;;;19.90;62.00;;;;;;5064691;28;20408;-26
2022/09/29 08:00:16;;;;;;;0.10;0.10;;;19.90;61.90;;;;;;5064078;28;20545;-19
2022/09/29 08:02:42;;;;;;;0.10;0.10;;;19.90;62.00;;;;;;5062377;28;20037;-19
2022/09/29 08:05:08;;;;;;;0.10;0.10;;;19.90;61.90;;;;;;5066479;28;20115;-19
2022/09/29 08:07:33;;;;;;;0.20;0.10;;;19.90;61.60;;;;;;5063438;28;20136;-19
2022/09/29 08:09:59;;;;;;;1.48;0.20;;;19.90;61.60;;;;;;5062842;28;20045;-19
2022/09/29 08:12:26;;;;;;;0.20;0.20;;;19.90;61.60;;;;;;5063295;28;20058;-19
2022/09/29 08:14:51;;;;;;;1.27;0.10;;;19.90;61.70;;;;;;5064865;28;20044;-19
2022/09/29 08:17:17;;;;;;;0.15;0.10;;;19.90;61.60;;;;;;5064583;28;20059;-19
2022/09/29 08:19:42;;;;;;;0.20;0.10;;;19.90;62.40;;;;;;5061063;28;20039;-19
2022/09/29 08:22:08;;;;;;;1.17;0.10;;;19.90;61.50;;;;;;5066039;28;20060;-28
2022/09/29 08:24:35;;;;;;;0.10;0.10;;;19.90;61.50;;;;;;5061252;28;20118;-19
2022/09/29 08:27:04;;;;;;;0.10;0.10;;;19.90;61.50;;;;;;5066221;28;20048;-19
2022/09/29 08:29:29;;;;;;;0.40;0.10;;;19.90;61.40;;;;;;5059772;28;20045;-19
2022/09/29 08:31:55;;;;;;;0.10;0.10;;;19.90;61.40;;;;;;5067325;28;20086;-18
2022/09/29 08:34:21;;;;;;;0.15;0.08;;;19.90;61.40;;;;;;5060322;28;20031;-19
2022/09/29 08:36:47;;;;;;;0.10;0.10;;;20.00;61.40;;;;;;5062050;28;20048;-20
2022/09/29 08:39:14;;;;;;;0.10;0.10;;;20.00;61.30;;;;;;5063207;28;20041;-19
2022/09/29 08:42:04;;;;;;;0.43;0.40;;;20.00;61.30;;;;;;5065515;28;20029;-19
2022/09/29 08:44:37;;;;;;;0.10;0.10;;;20.00;61.30;;;;;;5045284;28;20044;-19
2022/09/29 08:47:05;;;;;;;0.30;0.10;;;20.00;61.20;;;;;;5064051;28;20052;-19
2022/09/29 08:49:42;;;;;;;0.10;0.10;;;20.10;61.30;;;;;;5047116;28;20036;-19
2022/09/29 08:52:22;;;;;;;0.10;0.10;;;20.10;61.30;;;;;;5064581;28;20063;-19
2022/09/29 08:54:49;;;;;;;0.20;0.20;;;20.10;61.20;;;;;;5064471;28;20057;-19
2022/09/29 08:57:18;;;;;;;0.20;0.20;;;20.10;61.30;;;;;;5064335;28;20351;-19
2022/09/29 08:59:55;;;;;;;0.10;0.10;;;20.10;61.20;;;;;;5057391;28;20071;-19
2022/09/29 09:02:32;;;;;;;0.20;0.20;;;20.10;61.30;;;;;;5055254;28;20609;-19
2022/09/29 09:05:20;;;;;;;0.20;0.20;;;20.10;61.20;;;;;;5061309;28;20044;-22
2022/09/29 09:07:50;;;;;;;0.30;0.17;;;20.10;61.20;;;;;;5060062;28;20094;-19
2022/09/29 09:10:38;;;;;;;0.20;0.20;;;20.10;61.30;;;;;;5061066;28;20462;-19
2022/09/29 09:13:10;;;;;;;0.10;0.10;;;20.10;62.20;;;;;;5062522;28;20056;-19
2022/09/29 09:15:45;;;;;;;0.20;0.10;;;20.10;61.50;;;;;;5060637;28;20515;-19
2022/09/29 09:18:29;;;;;;;0.30;0.20;;;20.20;61.50;;;;;;5060879;28;20936;-19
2022/09/29 09:21:07;;;;;;;0.45;0.10;;;20.20;61.50;;;;;;5061464;28;20147;-19
2022/09/29 09:23:33;;;;;;;0.85;0.13;;;20.30;61.70;;;;;;5060329;28;20028;-23
2022/09/29 09:26:02;;;;;;;0.22;0.22;;;20.30;61.50;;;;;;5057854;28;20033;-19
2022/09/29 09:28:42;;;;;;;0.25;0.25;;;20.30;61.60;;;;;;5053960;28;20147;-19
2022/09/29 09:31:19;;;;;;;0.17;0.10;;;20.30;61.70;;;;;;5040429;28;20052;-20
2022/09/29 09:33:54;;;;;;;0.08;0.08;;;20.30;61.60;;;;;;5056203;28;20794;-20
2022/09/29 09:36:39;;;;;;;0.25;0.10;;;20.30;61.70;;;;;;5061524;28;20185;-21
2022/09/29 09:39:07;;;;;;;;;;;20.30;61.60;;;;;;5057168;28;20040;-25
2022/09/29 09:41:33;;;;;;;0.10;0.10;;;20.40;61.70;;;;;;5056730;28;19920;-20
2022/09/29 09:44:04;;;;;;;0.00;0.00;;;20.40;61.70;;;;;;5070893;28;20068;-21
2022/09/29 09:46:32;;;;;;;0.15;0.10;;;20.40;61.80;;;;;;5061800;28;20093;-20
2022/09/29 09:49:05;;;;;;;0.38;0.10;;;20.30;62.00;;;;;;5055665;28;20044;-20
2022/09/29 09:51:46;;;;;;;0.20;0.10;;;20.40;61.60;;;;;;5063532;28;20059;-21
2022/09/29 09:54:31;;;;;;;0.50;0.20;;;20.40;61.90;;;;;;5065016;28;20392;-20
2022/09/29 09:57:00;;;;;;;0.10;0.10;;;20.40;61.90;;;;;;5066400;28;20052;-20
2022/09/29 09:59:31;;;;;;;0.10;0.10;;;20.40;61.90;;;;;;5058651;28;20040;-20
2022/09/29 10:01:57;;;;;;;0.30;0.20;;;20.40;61.90;;;;;;5063989;28;20141;-20
2022/09/29 10:04:24;;;;;;;0.35;0.10;;;20.40;62.00;;;;;;5042958;28;20490;-20
2022/09/29 10:06:50;;;;;;;0.50;0.10;;;20.40;61.90;;;;;;5061738;28;20040;-21
2022/09/29 10:09:16;;;;;;;0.30;0.08;;;20.40;62.30;;;;;;5042845;28;20907;-20
2022/09/29 10:11:45;;;;;;;0.10;0.00;;;20.40;62.00;;;;;;5062467;28;20046;-20
2022/09/29 10:14:24;;;;;;;0.40;0.10;;;20.40;62.30;;;;;;5063790;28;20029;-20
2022/09/29 10:17:00;;;;;;;0.30;0.10;;;20.40;62.30;;;;;;5069562;28;20051;-20
2022/09/29 10:20:00;;;;;;;0.30;0.30;;;20.40;62.30;;;;;;5072095;28;20048;-21
2022/09/29 10:22:27;;;;;;;0.95;0.10;;;20.40;62.50;;;;;;5066923;28;20060;-20
2022/09/29 10:25:13;;;;;;;0.30;0.10;;;20.40;62.50;;;;;;5066793;28;20049;-21
2022/09/29 10:27:40;;;;;;;1.27;0.10;;;20.40;62.40;;;;;;5049826;28;20044;-20
2022/09/29 10:30:22;;;;;;;1.27;0.10;;;20.30;62.10;;;;;;5065997;28;20406;-20
2022/09/29 10:32:47;;;;;;;0.75;0.10;;;20.30;62.00;;;;;;5065921;28;20565;-20
2022/09/29 10:35:19;;;;;;;0.30;0.10;;;20.40;61.90;;;;;;5064100;28;20058;-20
2022/09/29 10:37:51;;;;;;;0.10;0.10;;;20.40;61.80;;;;;;5062303;28;20052;-21
2022/09/29 10:40:20;;;;;;;1.45;0.15;;;20.30;62.00;;;;;;5066624;28;20166;-19
2022/09/29 10:42:47;;;;;;;0.43;0.17;;;20.40;62.50;;;;;;5063463;28;20052;-25
2022/09/29 10:45:17;;;;;;;0.25;0.13;;;20.40;62.40;;;;;;5061877;28;20035;-20
2022/09/29 10:48:08;;;;;;;0.20;0.20;;;20.40;62.40;;;;;;5058243;28;20507;-20
2022/09/29 10:50:36;;;;;;;0.85;0.30;;;20.40;62.50;;;;;;5055521;28;20131;-25
2022/09/29 10:53:16;;;;;;;0.40;0.30;;;20.40;62.80;;;;;;5065177;28;20056;-20
2022/09/29 10:55:52;;;;;;;0.82;0.52;;;20.30;63.20;;;;;;5063966;28;20078;-20
2022/09/29 10:58:30;;;;;;;0.82;0.25;;;20.40;63.10;;;;;;5065807;28;20037;-20
2022/09/29 11:01:21;;;;;;;0.40;0.30;;;20.40;63.20;;;;;;5064347;28;20060;-20
2022/09/29 11:03:53;;;;;;;0.20;0.20;;;20.40;63.50;;;;;;5058998;28;20037;-19
2022/09/29 11:06:25;;;;;;;0.28;0.28;;;20.40;63.90;;;;;;5063489;28;20040;-19
2022/09/29 11:09:16;;;;;;;1.45;0.47;;;20.40;63.40;;;;;;5059335;28;20103;-19
2022/09/29 11:11:48;;;;;;;0.50;0.40;;;20.40;63.40;;;;;;5061786;28;20040;-20
2022/09/29 11:14:42;;;;;;;0.20;0.20;;;20.40;63.50;;;;;;5062212;28;20045;-19
2022/09/29 11:17:27;;;;;;;0.30;0.30;;;20.40;63.30;;;;;;5057464;28;20035;-19
2022/09/29 11:19:54;;;;;;;0.80;0.30;;;20.40;63.20;;;;;;5062487;28;20051;-19
2022/09/29 11:22:31;;;;;;;1.50;0.30;;;20.40;62.80;;;;;;5065793;28;20048;-18
2022/09/29 11:25:09;;;;;;;1.63;0.15;;;20.40;63.10;;;;;;5062313;28;20080;-19
2022/09/29 11:27:42;;;;;;;1.13;0.20;;;20.40;63.10;;;;;;5064142;28;20059;-19
2022/09/29 11:30:21;;;;;;;0.20;0.20;;;20.40;63.00;;;;;;5055545;28;20041;-19
2022/09/29 11:33:04;;;;;;;0.30;0.30;;;20.40;63.00;;;;;;5052098;28;20454;-19
2022/09/29 11:35:54;;;;;;;0.38;0.20;;;20.40;63.00;;;;;;5055876;28;20044;-19
2022/09/29 11:38:30;;;;;;;0.20;0.20;;;20.40;63.10;;;;;;5048796;28;20052;-19
2022/09/29 11:41:36;;;;;;;0.17;0.13;;;20.40;62.90;;;;;;5050137;28;20036;-19
2022/09/29 11:44:37;;;;;;;0.13;0.13;;;20.40;62.80;;;;;;5034800;28;20048;-19
2022/09/29 11:47:39;;;;;;;0.32;0.10;;;20.40;62.90;;;;;;5040711;28;20111;-19
2022/09/29 11:50:10;;;;;;;0.52;0.10;;;20.40;63.00;;;;;;5019914;28;20048;-19
2022/09/29 11:52:38;;;;;;;0.57;0.25;;;20.30;62.70;;;;;;5027221;28;20107;-19
2022/09/29 11:55:18;;;;;;;1.20;0.20;;;20.30;63.00;;;;;;5030275;28;20079;-20
2022/09/29 11:58:17;;;;;;;0.30;0.10;;;20.40;62.90;;;;;;5042770;28;20041;-19
2022/09/29 12:00:54;;;;;;;0.65;0.20;;;20.30;62.90;;;;;;5034744;28;20036;-19
2022/09/29 12:03:31;;;;;;;0.20;0.10;;;20.40;62.70;;;;;;5045513;28;20049;-22
2022/09/29 12:06:02;;;;;;;0.20;0.20;;;20.40;63.00;;;;;;5027073;28;20595;-19
2022/09/29 12:08:59;;;;;;;0.55;0.22;;;20.40;63.00;;;;;;5023787;28;20053;-19
2022/09/29 12:11:46;;;;;;;0.35;0.13;;;20.30;62.70;;;;;;5028650;28;20041;-19
2022/09/29 12:14:20;;;;;;;0.30;0.20;;;20.40;62.60;;;;;;5033945;28;20049;-18
2022/09/29 12:16:57;;;;;;;0.63;0.10;;;20.40;62.60;;;;;;5023218;28;20025;-20
2022/09/29 12:19:27;;;;;;;0.90;0.25;;;20.40;62.70;;;;;;5021641;28;20021;-19
2022/09/29 12:21:54;;;;;;;0.25;0.10;;;20.40;62.80;;;;;;5036721;28;20532;-19
2022/09/29 12:24:21;;;;;;;0.10;0.10;;;20.40;62.60;;;;;;5048234;28;20037;-19
2022/09/29 12:26:48;;;;;;;0.10;0.10;;;20.40;62.50;;;;;;5050842;28;20041;-19
2022/09/29 12:29:33;;;;;;;0.25;0.10;;;20.30;62.40;;;;;;5043546;28;20041;-19
2022/09/29 12:32:00;;;;;;;0.20;0.17;;;20.30;62.60;;;;;;5079245;28;20471;-25
2022/09/29 12:34:37;;;;;;;0.10;0.10;;;20.30;62.40;;;;;;5046866;28;20052;-20
2022/09/29 12:37:06;;;;;;;0.28;0.10;;;20.40;62.70;;;;;;5049919;28;20056;-19
2022/09/29 12:40:05;;;;;;;0.82;0.13;;;20.40;62.40;;;;;;5042609;28;20040;-19
2022/09/29 12:42:49;;;;;;;0.20;0.20;;;20.40;62.50;;;;;;5072356;28;20098;-19
2022/09/29 12:45:22;;;;;;;0.10;0.10;;;20.30;62.40;;;;;;5052447;28;20077;-19
2022/09/29 12:47:59;;;;;;;0.35;0.10;;;20.30;62.50;;;;;;5066666;28;20115;-19
2022/09/29 12:50:28;;;;;;;0.40;0.10;;;20.30;62.50;;;;;;5056064;28;20131;-19
2022/09/29 12:53:02;;;;;;;0.10;0.10;;;20.30;62.30;;;;;;5058329;28;20044;-19
2022/09/29 12:55:57;;;;;;;0.52;0.10;;;20.30;62.20;;;;;;5056723;28;20083;-20
2022/09/29 12:58:37;;;;;;;0.20;0.10;;;20.40;62.30;;;;;;5024208;28;20049;-28
2022/09/29 13:01:15;;;;;;;0.30;0.10;;;20.40;62.30;;;;;;5045112;28;20043;-19
2022/09/29 13:04:09;;;;;;;0.10;0.10;;;20.40;62.30;;;;;;5061417;28;20044;-19
2022/09/29 13:07:06;;;;;;;0.30;0.30;;;20.40;62.20;;;;;;5043838;28;20029;-19
2022/09/29 13:10:09;;;;;;;0.22;0.10;;;20.40;62.30;;;;;;5037620;28;20040;-19